Fort Worth Nas Jrb,Carswell field Fort Worth US
ICAO: KNFW
IATA: NFW
Category: Medium
Scheduled Services: No

Elevation: 650 ft
TransAlt. 18000 ft.

Airport Communications:
RGNL APP/DEP:125.8
NAVY FORT WORTH ARR:128.775
ATIS:27.357
NAVY FORT WORTH GND:126.4
LOCKHEED:28.41
BASE OPS:29.177
PMSV METRO:34.255
NAVY FORT WORTH TWR:120.95

KNFW Zoom In..

If you have problems with the map follow the link
https://www.worldairports.se/pages/airport.php?
ICAO=KNFW

Runways:

(A) RW 17 length 12000 ft width 200 ft
ILS 108.70 / hdg 174

(B) RW 35 length 12000 ft width 200 ft
ILS 109.30 / hdg 354

Location; KNFW
Day. 14 / Time. 17.52 Zulu
* Altimeter: 29.89
* Temperature: 15° c. 59°f.
* Wind from: 120° Speed 07 kn.
Dewpoint: 03° c.
Visibility: 10 Statute Miles.
Clouds: Few 25000 ft.

KNFW 141752Z 12007KT 10SM FEW250 15/03 A2989 RMK AO2 SLP106 T01560028 10256 20039 58006 VISNO N $


Wind From 120°
Speed 07 kn.

 
 
jpsmedia worldairports.se 2019   terms of use